首页
METAR-TAF:

METAR-TAF

机场 :

Naval Air Station Lemoore (Reeves Field)

Lemoore, 加利福尼亚州, 美国

纬度: 36-18-13N, 经度: 119-56-17W, 海拔: 71米

当前天气观测

该预报发布于35分钟前的14:56 UTC
风速3节,风向多变
温度 28°C
湿度 30%
气压 1012 hPa
能見度: 16.1公里
少量云层高于5000英尺
散云层高于16000英尺

METAR: KNLC 241456Z VRB03KT 10SM FEW050 SCT160 28/09 A2989 RMK AO2 SLP117 RH/29 T02830089 51009

时间: 08:31 (15:31 UTC)

预报

预报有效从24日的 15点(UTC)到 25日的 15点(UTC)
风速6节,风向多变
能见度10公里或以上
少量云层高于5000英尺
散云层高于16000英尺
散云层高于21000英尺
短暂存在
从 24日的 17点(UTC)到 24日的 23点(UTC)
风速9节,风向西
多云层高于21000英尺
附近有阵雨
成为
从 24日的 21点(UTC)到 24日的 23点(UTC)
风速9节,风向西
能见度10公里或以上
少量云层高于5000英尺
散云层高于16000英尺
多云层高于21000英尺
短暂存在
从 24日的 23点(UTC)到 25日的 03点(UTC)
风速12节,风向西,有时为18节阵风
散云层高于5000英尺
多云层高于15000英尺
小阵雨
从 25日的 0700点(UTC)
风速9节,风向北转西北
能见度10公里或以上
散云层高于18000英尺
多云层高于23000英尺

TAF: KNLC 2415/2515 VRB06KT 9999 FEW050 SCT160 SCT210 QNH2971INS TEMPO 2417/2423 27009KT VCSH BKN210 BECMG 2421/2423 26009KT 9999 FEW050 SCT160 BKN210 QNH2968INS TEMPO 2423/2503 28012G18KT -SHRA SCT050 BKN150 FM250700 33009KT 9999 SCT180 BKN230 QNH2977INS TX39/2423Z TN22/2513Z FS30206

超过4000个机场的气象观测和天气预报(METAR&TAF报告)。

可查询的气象台以黄色和红色小点在地图上表示。

将鼠标移到小点上方,可查看气象台名称。

然后点击查看天气观测和预报。

如需切换地图:点击带黑十字的绿色按钮放大地图;点击带横线的绿色按钮缩小地图;或者点击绿色箭头查看邻近地区的地图。


METAR-TAF: